Terminal Aerodrome Forecast
Issued by NWS

Home | Current Version | Previous Version | Text Only | Print | Product List | Glossary On
Versions: 1 2 3 4 5 6 7 8 9 10 11 12 13 14 15 16 17 18 19 20 21 22 23 24 25 26 27 28 29 30 31 32 33
000
FTUS41 KBUF 292300
TAFJHW
TAF
KJHW 292337Z 3000/3024 27005KT P6SM SKC
     FM300800 20006KT P6SM SCT035 BKN045
     FM301200 22007KT P6SM VCSH SCT050 BKN080
     FM301500 25010KT P6SM VCSH SCT025 OVC040
     FM301700 25010KT 6SM -SHRA SCT020 OVC035
     FM302300 26007KT P6SM VCSH SCT020 BKN035
      AMD LTD TO CLD VIS AND WIND=

USA.gov is the U.S. government's official web portal to all federal, state and local government web resources and services.